This is the latest recevied weather packets stored in our database for station/object SP4LIN-15. If no packets are shown the sender has not sent any weather packets the latest 10 day(s).
| Time | Temp. | Humidity | Pressure | Rain* | Wind** | Luminosity | Snow |
|---|---|---|---|---|---|---|---|
| 1777785277 | 15.56° C | 53% | 1008.7 hPa | 0 mm | - | - | - |
| 1777784377 | 14.44° C | 55% | 1008.7 hPa | 0 mm | - | - | - |
| 1777783477 | 15° C | 54% | 1008.6 hPa | 0 mm | - | - | - |
| 1777782577 | 13.89° C | 56% | 1008.6 hPa | 0 mm | - | - | - |
| 1777781677 | 13.33° C | 58% | 1008.6 hPa | 0 mm | - | - | - |
| 1777780777 | 12.78° C | 59% | 1008.7 hPa | 0 mm | - | - | - |
| 1777779877 | 12.78° C | 59% | 1008.7 hPa | 0 mm | - | - | - |
| 1777778977 | 12.22° C | 60% | 1008.6 hPa | 0 mm | - | - | - |
| 1777778078 | 11.11° C | 63% | 1008.6 hPa | 0 mm | - | - | - |
| 1777777178 | 11.67° C | 63% | 1008.6 hPa | 0 mm | - | - | - |
| 1777776278 | 11.67° C | 62% | 1008.6 hPa | 0 mm | - | - | - |
| 1777775378 | 11.11° C | 63% | 1008.6 hPa | 0 mm | - | - | - |
| 1777774478 | 11.67° C | 62% | 1008.7 hPa | 0 mm | - | - | - |
| 1777773578 | 11.11° C | 63% | 1008.7 hPa | 0 mm | - | - | - |
| 1777772678 | 10.56° C | 63% | 1008.8 hPa | 0 mm | - | - | - |
| 1777771778 | 11.67° C | 61% | 1008.7 hPa | 0 mm | - | - | - |
| 1777770878 | 11.67° C | 61% | 1008.7 hPa | 0 mm | - | - | - |
| 1777769978 | 11.67° C | 60% | 1008.9 hPa | 0 mm | - | - | - |
| 1777769078 | 12.22° C | 60% | 1009.1 hPa | 0 mm | - | - | - |
| 1777768178 | 11.67° C | 62% | 1009 hPa | 0 mm | - | - | - |
| 1777767278 | 10.56° C | 65% | 1009 hPa | 0 mm | - | - | - |
| 1777766378 | 10° C | 64% | 1009.2 hPa | 0 mm | - | - | - |
| 1777765478 | 10° C | 64% | 1009.2 hPa | 0 mm | - | - | - |
| 1777764578 | 10° C | 64% | 1009.3 hPa | 0 mm | - | - | - |
| 1777763678 | 10° C | 61% | 1009.4 hPa | 0 mm | - | - | - |
* Rain latest hour (hover to see other rain measurements)
** Current wind speed in m/s (hover to see current wind gust speed)